• Join FlightAware (Why Join?)
  • Login
  • US Flag 
12:55PM EDT


 

Airport Tracker/Info


-or-


 

Live Flight TrackerFlight Track Log ✈ N2863W ✈ 29-Apr-2013 ✈ KABY - KMGY

Flight Track Log - Related Links

Times and Time Zones

All times are in EDT time to prevent confusion due to time zone crossing. See the N2863W flight status page for this flight to view local times or setup timezone preferences in your user account.

Time Position Orientation Groundspeed Altitude Reporting Facility
EDT Latitude Longitude Course Direction KTS MPH feet Rate Location/Type
10:35AM 31.4890 -84.3480 250° West  Level FlightAware Approximate
10:35AM 31.5147 -84.1939 262° West 165 190 1,100  Level Jacksonville Center
10:36AM 31.4823 -84.3913 262° West  Level FlightAware Approximate
10:36AM 31.4897 -84.1936 179° South 128 147 2,000  Level Jacksonville Center
10:37AM 31.4756 -84.4450 262° West  Level FlightAware Approximate
10:37AM 31.4583 -84.1883 172° South 111 128 2,700  Level Jacksonville Center
10:38AM 31.4414 -84.2050 220° Southwest 92 106 3,400 660 Climbing Jacksonville Center
10:39AM 31.4453 -84.2417 277° West 80 92 4,100 660 Climbing Jacksonville Center
10:40AM 31.4408 -84.2781 262° West 99 114 4,800 660 Climbing Jacksonville Center
10:41AM 31.4342 -84.3144 258° West 107 123 5,500 600 Climbing Jacksonville Center
10:42AM 31.4294 -84.3486 261° West 107 123 6,000 240 Climbing Jacksonville Center
10:43AM 31.4269 -84.3922 266° West 114 131 6,000  Level Jacksonville Center
10:44AM 31.4200 -84.4433 261° West 140 161 6,000  Level Jacksonville Center
10:45AM 31.4153 -84.4944 264° West 155 178 6,000  Level Jacksonville Center
10:46AM 31.4167 -84.5431 272° West 160 184 6,000  Level Jacksonville Center
10:47AM 31.4244 -84.5894 281° West 160 184 6,000  Level Jacksonville Center
10:48AM 31.4303 -84.6286 280° West 156 180 6,000  Level Jacksonville Center
10:48AM 31.4342 -84.6408 290° West 160 184 6,000  Level Jacksonville Center
10:49AM 31.4397 -84.6919 277° West 160 184 6,000  Level Jacksonville Center
10:50AM 31.4433 -84.7358 276° West 155 178 6,000  Level Jacksonville Center
10:51AM 31.4486 -84.7919 276° West 155 178 6,000  Level Jacksonville Center
10:52AM 31.4439 -84.8358 263° West 154 177 6,000  Level Jacksonville Center
10:53AM 31.4408 -84.8917 266° West 160 184 6,000  Level Jacksonville Center
10:54AM 31.4339 -84.9378 260° West 154 177 6,000  Level Jacksonville Center
10:55AM 31.4331 -84.9889 269° West 153 176 6,000  Level Jacksonville Center
10:56AM 31.4281 -85.0375 263° West 154 177 6,000  Level Jacksonville Center
10:57AM 31.4378 -85.0889 283° West 154 177 6,000  Level Jacksonville Center
10:58AM 31.4533 -85.1428 289° West 157 181 6,000  Level Jacksonville Center
10:59AM 31.4714 -85.1919 293° West 157 181 6,000  Level Jacksonville Center
11:00AM 31.4892 -85.2411 293° West 156 180 6,000  Level Jacksonville Center
11:01AM 31.5072 -85.2856 295° West 155 178 6,000  Level Jacksonville Center
11:02AM 31.5208 -85.3322 289° West 154 177 6,000  Level Jacksonville Center
11:03AM 31.5622 -85.3550 335° Northwest 169 194 6,000 120 Level Jacksonville Center
11:04AM 31.6064 -85.3442 12° North 167 192 6,300 300 Climbing Jacksonville Center
11:05AM 31.6503 -85.3381 North 157 181 6,700 300 Climbing Jacksonville Center
11:06AM 31.6900 -85.3342 North 153 176 7,000 60 Climbing Jacksonville Center
11:08AM 31.7362 -85.3178 17° North  Level FlightAware Approximate
11:08AM 31.7833 -85.3333 17° North 171 197 7,000  Level Atlanta TRACON
11:09AM 31.8333 -85.3167 16° North 170 196 7,000  Level Atlanta TRACON
11:10AM 31.8833 -85.3167 360° North 168 193 7,000  Level Atlanta TRACON
11:11AM 31.9333 -85.3167 360° North 168 193 7,000  Level Atlanta TRACON
11:12AM 31.9833 -85.3000 16° North 171 197 7,000  Level Atlanta TRACON
11:13AM 32.0167 -85.3000 360° North 170 196 7,000  Level Atlanta TRACON
11:14AM 32.0667 -85.3000 360° North 171 197 7,000  Level Atlanta TRACON
11:16AM 32.1110 -85.2854 16° North  Level FlightAware Approximate
11:16AM 32.1667 -85.2833 16° North 171 197 7,000  Level Atlanta TRACON
11:17AM 32.2167 -85.2833 360° North 170 196 7,000  Level Atlanta TRACON
11:18AM 32.2667 -85.2667 16° North 172 198 7,000 240 Level Atlanta TRACON
11:19AM 32.3000 -85.2667 360° North 158 182 7,500 480 Climbing Atlanta TRACON
11:20AM 32.3500 -85.2667 360° North 140 161 8,000 240 Climbing Atlanta TRACON
11:21AM 32.3833 -85.2667 360° North 160 184 8,000  Level Atlanta TRACON
11:22AM 32.4333 -85.2667 360° North 167 192 8,000  Level Atlanta TRACON
11:23AM 32.4833 -85.2500 16° North 172 198 8,000  Level Atlanta TRACON
11:25AM 32.5288 -85.2573 352° North  Level FlightAware Approximate
11:26AM 32.6167 -85.2500 352° North 172 198 8,000  Level Atlanta TRACON
11:28AM 32.6623 -85.2439 North  Level Estimated
11:30AM 32.8167 -85.2333 North 173 199 8,000  Level Atlanta TRACON
11:32AM 32.8320 -85.3065 352° North  Level FlightAware Approximate
11:33AM 32.9183 -85.2167 North 182 209 8,000  Level Atlanta Center
11:34AM 32.9619 -85.2247 351° North 171 197 8,000  Level Atlanta Center
11:35AM 32.9663 -85.2027 North  Level Estimated
11:35AM 33.0056 -85.2403 343° North 166 191 8,000  Level Atlanta Center
11:36AM 33.0097 -85.1968 North  Level Estimated
11:36AM 33.0494 -85.2556 344° North 161 185 8,000  Level Atlanta Center
11:37AM 33.0950 -85.2686 346° North 167 192 8,000  Level Atlanta Center
11:38AM 33.1408 -85.2792 349° North 167 192 8,000  Level Atlanta Center
11:39AM 33.1867 -85.2972 342° North 167 192 8,000  Level Atlanta Center
11:40AM 33.2303 -85.3103 346° North 161 185 8,000  Level Atlanta Center
11:41AM 33.2742 -85.3233 346° North 161 185 8,000  Level Atlanta Center
11:42AM 33.3158 -85.3364 345° North 167 192 8,000  Level Atlanta Center
11:43AM 33.3594 -85.3494 346° North 162 186 8,000  Level Atlanta Center
11:44AM 33.4011 -85.3600 348° North 162 186 8,000  Level Atlanta Center
11:45AM 33.4489 -85.3733 347° North 162 186 8,000  Level Atlanta Center
11:46AM 33.4947 -85.3889 344° North 162 186 8,000  Level Atlanta Center
11:47AM 33.5383 -85.4019 346° North 162 186 8,000  Level Atlanta Center
11:48AM 33.5861 -85.4178 345° North 162 186 8,000  Level Atlanta Center
11:49AM 33.6322 -85.4136 North 167 192 8,000  Level Atlanta Center
11:50AM 33.6825 -85.3994 13° North 162 186 8,000  Level Atlanta Center
11:51AM 33.7325 -85.3903 North 162 186 8,000  Level Atlanta Center
11:52AM 33.7808 -85.3783 12° North 168 193 8,000  Level Atlanta Center
11:53AM 33.8289 -85.3667 11° North 168 193 8,000  Level Atlanta Center
11:54AM 33.8769 -85.3550 11° North 173 199 8,000  Level Atlanta Center
11:55AM 33.9231 -85.3431 12° North 173 199 8,000  Level Atlanta Center
11:56AM 33.9669 -85.3339 10° North 173 199 8,000  Level Atlanta Center
11:57AM 34.0172 -85.3194 13° North 173 199 8,000  Level Atlanta Center
11:58AM 34.0653 -85.3103 North 173 199 8,000  Level Atlanta Center
11:59AM 34.1114 -85.2983 12° North 173 199 8,000  Level Atlanta Center
12:00PM 34.1594 -85.2864 12° North 177 204 8,000  Level Atlanta Center
12:01PM 34.2097 -85.2747 11° North 177 204 8,000  Level Atlanta Center
12:02PM 34.2642 -85.2603 12° North 177 204 8,000  Level Atlanta Center
12:03PM 34.3142 -85.2483 11° North 178 205 8,000  Level Atlanta Center
12:04PM 34.3603 -85.2392 North 178 205 8,000  Level Atlanta Center
12:05PM 34.4022 -85.2272 13° North 173 199 8,000  Level Atlanta Center
12:06PM 34.4461 -85.2150 13° North 168 193 8,000  Level Atlanta Center
12:07PM 34.4964 -85.2058 North 168 193 8,000  Level Atlanta Center
12:08PM 34.5403 -85.1936 13° North 168 193 8,000  Level Atlanta Center
12:09PM 34.5883 -85.1817 12° North 168 193 8,000  Level Atlanta Center
12:10PM 34.6364 -85.1672 14° North 168 193 8,000  Level Atlanta Center
12:11PM 34.6825 -85.1603 North 162 186 8,000  Level Atlanta Center
12:12PM 34.7306 -85.1483 12° North 162 186 8,000  Level Atlanta Center
12:14PM 34.8095 -85.1203 16° North  Level FlightAware Approximate
12:21PM 35.1088 -85.0427 11° North  Level FlightAware Approximate
12:22PM 35.1516 -85.0325 11° North  Level FlightAware Approximate
12:23PM 35.1945 -85.0223 11° North  Level FlightAware Approximate
12:24PM 35.2374 -85.0121 11° North  Level FlightAware Approximate
12:25PM 35.2803 -85.0019 11° North  Level FlightAware Approximate
12:26PM 35.3232 -84.9916 11° North  Level FlightAware Approximate
12:26PM 35.4039 -84.9842 11° North 179 206 8,000  Level Atlanta Center
12:27PM 35.3660 -84.9814 11° North  Level FlightAware Approximate
12:27PM 35.4478 -84.9744 10° North 173 199 8,000  Level Atlanta Center
12:28PM 35.4089 -84.9712 11° North  Level FlightAware Approximate
12:28PM 35.4917 -84.9622 13° North 161 185 8,000  Level Atlanta Center
12:29PM 35.4518 -84.9609 11° North  Level FlightAware Approximate
12:29PM 35.5375 -84.9497 13° North 161 185 8,000  Level Atlanta Center
12:30PM 35.4947 -84.9506 11° North  Level FlightAware Approximate
12:30PM 35.5814 -84.9400 10° North 161 185 8,000  Level Atlanta Center
12:31PM 35.6294 -84.9278 12° North 161 185 8,000  Level Atlanta Center
12:32PM 35.6733 -84.9156 13° North 161 185 8,000  Level Atlanta Center
12:33PM 35.7194 -84.9058 10° North 161 185 8,000  Level Atlanta Center
12:34PM 35.7653 -84.8936 12° North 161 185 8,000  Level Atlanta Center
12:35PM 35.8114 -84.8811 12° North 161 185 8,000  Level Atlanta Center
12:36PM 35.8572 -84.8714 10° North 161 185 8,000  Level Atlanta Center
12:37PM 35.9033 -84.8592 12° North 161 185 8,000  Level Atlanta Center
12:38PM 35.9472 -84.8492 10° North 161 185 8,000  Level Atlanta Center
12:39PM 35.9931 -84.8369 12° North 161 185 8,000  Level Atlanta Center
12:41PM 36.0719 -84.8156 12° North 164 189 8,000  Level Indianapolis Center
12:42PM 36.1167 -84.8047 11° North 164 189 8,000  Level Indianapolis Center
12:43PM 36.1625 -84.7933 11° North 167 192 8,000  Level Indianapolis Center
12:44PM 36.2081 -84.7814 12° North 168 193 8,000  Level Indianapolis Center
12:45PM 36.2633 -84.7675 11° North 169 194 8,000  Level Indianapolis Center
12:46PM 36.3092 -84.7600 North 166 191 8,000  Level Indianapolis Center
12:47PM 36.3561 -84.7589 North 167 192 8,000  Level Indianapolis Center
12:48PM 36.4031 -84.7583 North 168 193 8,000 240 Level Indianapolis Center
12:49PM 36.4450 -84.7547 North 158 182 8,500 480 Climbing Indianapolis Center
12:50PM 36.4833 -84.7425 14° North 145 167 9,000 240 Climbing Indianapolis Center
12:51PM 36.5331 -84.7297 12° North 150 173 9,000  Level Indianapolis Center
12:52PM 36.5769 -84.7175 13° North 160 184 9,000  Level Indianapolis Center
12:53PM 36.6211 -84.7050 13° North 162 186 9,000  Level Indianapolis Center
12:54PM 36.6664 -84.6933 12° North 164 189 9,000  Level Indianapolis Center
12:55PM 36.7097 -84.6806 13° North 162 186 9,000  Level Indianapolis Center
12:56PM 36.7550 -84.6697 11° North 165 190 9,000  Level Indianapolis Center
12:57PM 36.7997 -84.6581 12° North 165 190 9,000  Level Indianapolis Center
12:58PM 36.8536 -84.6422 13° North 164 189 9,000  Level Indianapolis Center
12:59PM 36.8989 -84.6322 10° North 165 190 9,000  Level Indianapolis Center
01:00PM 36.9433 -84.6189 13° North 164 189 9,000  Level Indianapolis Center
01:01PM 36.9883 -84.6067 12° North 164 189 9,000  Level Indianapolis Center
01:02PM 37.0339 -84.5942 12° North 166 191 9,000  Level Indianapolis Center
01:03PM 37.0817 -84.5808 13° North 166 191 9,000  Level Indianapolis Center
01:04PM 37.1269 -84.5692 12° North 165 190 9,000  Level Indianapolis Center
01:05PM 37.1717 -84.5569 12° North 164 189 9,000  Level Indianapolis Center
01:06PM 37.2169 -84.5453 12° North 165 190 9,000  Level Indianapolis Center
01:07PM 37.2683 -84.5300 13° North 163 188 9,000  Level Indianapolis Center
01:08PM 37.3133 -84.5189 11° North 164 189 9,000  Level Indianapolis Center
01:09PM 37.3583 -84.5069 12° North 165 190 9,000  Level Indianapolis Center
01:10PM 37.4033 -84.4956 11° North 165 190 9,000  Level Indianapolis Center
01:11PM 37.4475 -84.4825 13° North 163 188 9,000  Level Indianapolis Center
01:13PM 37.4925 -84.4703 12° North 164 189 9,000  Level Indianapolis Center
01:14PM 37.5450 -84.4564 12° North 165 190 9,000  Level Indianapolis Center
01:15PM 37.5897 -84.4428 14° North 165 190 9,000  Level Indianapolis Center
01:16PM 37.6350 -84.4325 10° North 165 190 9,000  Level Indianapolis Center
01:17PM 37.6797 -84.4189 14° North 165 190 9,000  Level Indianapolis Center
01:18PM 37.7247 -84.4064 12° North 165 190 9,000  Level Indianapolis Center
01:19PM 37.7697 -84.3919 14° North 165 190 9,000  Level Indianapolis Center
01:20PM 37.8144 -84.3800 12° North 165 190 9,000  Level Indianapolis Center
01:21PM 37.8675 -84.3672 11° North 165 190 9,000  Level Indianapolis Center
01:22PM 37.9125 -84.3550 12° North 164 189 9,000  Level Indianapolis Center
01:23PM 37.9581 -84.3422 12° North 167 192 9,000  Level Indianapolis Center
01:24PM 38.0036 -84.3289 13° North 167 192 9,000  Level Indianapolis Center
01:25PM 38.0497 -84.3172 11° North 169 194 9,000  Level Indianapolis Center
01:26PM 38.0953 -84.3039 13° North 168 193 9,000  Level Indianapolis Center
01:27PM 38.1497 -84.2892 12° North 170 196 9,000  Level Indianapolis Center
01:28PM 38.1953 -84.2761 13° North 169 194 9,000  Level Indianapolis Center
01:29PM 38.2414 -84.2633 12° North 168 193 9,000  Level Indianapolis Center
01:30PM 38.2875 -84.2506 12° North 169 194 9,000  Level Indianapolis Center
01:31PM 38.3331 -84.2369 13° North 168 193 9,000  Level Indianapolis Center
01:32PM 38.3789 -84.2253 11° North 169 194 9,000  Level Indianapolis Center
01:33PM 38.4242 -84.2106 14° North 168 193 9,000  Level Indianapolis Center
01:34PM 38.4781 -84.1961 12° North 168 193 9,000  Level Indianapolis Center
01:35PM 38.5236 -84.1864 North 168 193 9,000  Level Indianapolis Center
01:36PM 38.5700 -84.1894 357° North 171 197 9,000  Level Indianapolis Center
01:37PM 38.6158 -84.1922 357° North 166 191 9,000  Level Indianapolis Center
01:38PM 38.6636 -84.1936 359° North 165 190 9,000 -60 Level Indianapolis Center
01:39PM 38.7097 -84.1933 360° North 164 189 8,900 -300 Descending Indianapolis Center
01:40PM 38.7581 -84.1961 357° North 171 197 8,500 -420 Descending Indianapolis Center
01:41PM 38.8089 -84.1994 357° North 179 206 8,100 -480 Descending Indianapolis Center
01:42PM 38.8589 -84.2061 354° North 180 207 7,600 -480 Descending Indianapolis Center
01:43PM 38.9164 -84.2156 353° North 178 205 7,200 -360 Descending Indianapolis Center
01:44PM 38.9639 -84.2269 349° North 173 199 6,900 -360 Descending Indianapolis Center
01:45PM 39.0119 -84.2361 352° North 172 198 6,500 -480 Descending Indianapolis Center
01:46PM 39.0589 -84.2444 352° North 170 196 6,000 -480 Descending Indianapolis Center
01:48PM 39.1056 -84.2547 350° North 168 193 5,600 -540 Descending Indianapolis Center
01:49PM 39.1531 -84.2661 349° North 170 196 4,900 -540 Descending Indianapolis Center
01:50PM 39.1989 -84.2747 352° North 168 193 4,600 -420 Descending Indianapolis Center
01:51PM 39.2433 -84.2836 351° North 165 190 4,100 -360 Descending Indianapolis Center
01:52PM 39.2864 -84.2914 352° North 160 184 3,900 -360 Descending Indianapolis Center
01:53PM 39.3364 -84.3017 351° North 156 180 3,400 -360 Descending Indianapolis Center
01:54PM 39.3767 -84.3106 350° North 152 175 3,200 -120 Descending Indianapolis Center
01:55PM 39.4111 -84.3175 351° North 140 161 3,200  Level Indianapolis Center
01:56PM 39.4428 -84.3006 22° Northeast 139 160 3,200  Level Indianapolis Center
01:57PM 39.4778 -84.2839 20° North 135 155 3,200 -420 Level Indianapolis Center
01:58PM 39.5125 -84.2658 22° Northeast 134 154 2,400 -720 Descending Indianapolis Center
01:59PM 39.5456 -84.2467 24° Northeast 132 152 1,800 -600 Descending Indianapolis Center
02:02PM 39.5833 -84.2167 North  Level FlightAware Approximate
02:09PM 39.5890 -84.2249 North  Level Estimated